Time;durP1;ratioP1;P1;durP2;ratioP2;P2;SDS_P1;SDS_P2;PMS_P1;PMS_P2;Temp;Humidity;BMP_temperature;BMP_pressure;BME280_temperature;BME280_humidity;BME280_pressure;Samples;Min_cycle;Max_cycle;Signal;HPM_P1;HPM_P2
2022/07/23 00:01:59;;;;;;;;;;;27.40;99.90;;;;;;5050991;28;19909;-71
2022/07/23 00:04:25;;;;;;;;;;;27.60;99.90;;;;;;5050989;28;19919;-72
2022/07/23 00:06:50;;;;;;;;;;;27.70;99.90;;;;;;5050649;28;20395;-73
2022/07/23 00:09:16;;;;;;;;;;;27.70;99.90;;;;;;5050925;28;19909;-72
2022/07/23 00:11:42;;;;;;;;;;;27.80;99.90;;;;;;5050522;28;19908;-72
2022/07/23 00:14:07;;;;;;;;;;;27.80;99.90;;;;;;5050611;28;19915;-73
2022/07/23 00:16:33;;;;;;;;;;;27.80;99.90;;;;;;5050696;28;19920;-72
2022/07/23 00:19:01;;;;;;;;;;;27.80;99.90;;;;;;5050500;28;19909;-72
2022/07/23 00:21:26;;;;;;;;;;;27.80;99.90;;;;;;5051381;28;19931;-72
2022/07/23 00:23:52;;;;;;;;;;;27.80;99.90;;;;;;5054231;28;20372;-73
2022/07/23 00:26:18;;;;;;;;;;;27.80;99.90;;;;;;5054510;28;20004;-72
2022/07/23 00:28:43;;;;;;;;;;;27.90;99.90;;;;;;5055446;28;19913;-72
2022/07/23 00:31:09;;;;;;;;;;;27.80;99.90;;;;;;5054274;28;19909;-73
2022/07/23 00:33:34;;;;;;;;;;;27.80;99.90;;;;;;5052741;28;19958;-72
2022/07/23 00:36:00;;;;;;;;;;;27.80;99.90;;;;;;5053796;28;19965;-72
2022/07/23 00:38:25;;;;;;;;;;;27.80;99.90;;;;;;5054343;28;19915;-71
2022/07/23 00:40:51;;;;;;;;;;;27.80;99.90;;;;;;5054316;28;20286;-72
2022/07/23 00:43:19;;;;;;;;;;;27.70;99.90;;;;;;5054278;28;20404;-72
2022/07/23 00:45:45;;;;;;;;;;;27.60;99.90;;;;;;5054455;28;19908;-72
2022/07/23 00:48:10;;;;;;;;;;;27.60;99.90;;;;;;5054077;28;19913;-72
2022/07/23 00:50:36;;;;;;;;;;;27.60;99.90;;;;;;5054142;28;19913;-72
2022/07/23 00:53:01;;;;;;;;;;;27.50;99.90;;;;;;5053973;28;19984;-71
2022/07/23 00:55:27;;;;;;;;;;;27.50;99.90;;;;;;5052098;28;20323;-72
2022/07/23 00:57:54;;;;;;;;;;;27.50;99.90;;;;;;5053972;28;19975;-72
2022/07/23 01:00:20;;;;;;;;;;;27.60;99.90;;;;;;5054362;28;19976;-72
2022/07/23 01:02:46;;;;;;;;;;;27.60;99.90;;;;;;5053449;28;19928;-71
2022/07/23 01:05:12;;;;;;;;;;;27.60;99.90;;;;;;5053592;28;20007;-71
2022/07/23 01:07:38;;;;;;;;;;;27.60;99.90;;;;;;5054244;28;19913;-72
2022/07/23 01:10:04;;;;;;;;;;;27.50;99.90;;;;;;5054366;28;20007;-71
2022/07/23 01:12:29;;;;;;;;;;;27.50;99.90;;;;;;5054784;28;20414;-71
2022/07/23 01:14:56;;;;;;;;;;;27.50;99.90;;;;;;5053390;28;19909;-71
2022/07/23 01:17:21;;;;;;;;;;;27.40;99.90;;;;;;5053522;28;19916;-72
2022/07/23 01:19:47;;;;;;;;;;;27.40;99.90;;;;;;5053378;28;20303;-71
2022/07/23 01:22:14;;;;;;;;;;;27.40;99.90;;;;;;5053797;28;19998;-71
2022/07/23 01:24:40;;;;;;;;;;;27.40;99.90;;;;;;5053295;28;19917;-71
2022/07/23 01:27:05;;;;;;;;;;;27.40;99.90;;;;;;5053303;28;19995;-70
2022/07/23 01:29:31;;;;;;;;;;;27.40;99.90;;;;;;5051691;28;19913;-71
2022/07/23 01:31:56;;;;;;;;;;;27.40;99.90;;;;;;5052812;28;19909;-71
2022/07/23 01:34:22;;;;;;;;;;;27.30;99.90;;;;;;5050591;28;19915;-71
2022/07/23 01:36:48;;;;;;;;;;;27.30;99.90;;;;;;5052698;28;19988;-71
2022/07/23 01:39:13;;;;;;;;;;;27.30;99.90;;;;;;5052669;28;19913;-72
2022/07/23 01:41:39;;;;;;;;;;;27.30;99.90;;;;;;5052701;28;20364;-71
2022/07/23 01:44:04;;;;;;;;;;;27.30;99.90;;;;;;5052737;28;19908;-72
2022/07/23 01:46:30;;;;;;;;;;;27.30;99.90;;;;;;5052443;28;19925;-72
2022/07/23 01:48:55;;;;;;;;;;;27.30;99.90;;;;;;5052540;28;20356;-71
2022/07/23 01:51:21;;;;;;;;;;;27.20;99.90;;;;;;5052838;28;19987;-71
2022/07/23 01:53:47;;;;;;;;;;;27.20;99.90;;;;;;5052445;28;20106;-72
2022/07/23 01:56:14;;;;;;;;;;;27.20;99.90;;;;;;5052292;28;19909;-72
2022/07/23 01:58:40;;;;;;;;;;;27.10;99.90;;;;;;5052544;28;19909;-71
2022/07/23 02:01:06;;;;;;;;;;;27.20;99.90;;;;;;5052333;28;19908;-71
2022/07/23 02:03:31;;;;;;;;;;;27.10;99.90;;;;;;5052741;28;19963;-72
2022/07/23 02:05:57;;;;;;;;;;;27.10;99.90;;;;;;5052233;28;19957;-71
2022/07/23 02:08:23;;;;;;;;;;;27.10;99.90;;;;;;5052454;28;20373;-71
2022/07/23 02:10:51;;;;;;;;;;;27.10;99.90;;;;;;5052229;28;19916;-72
2022/07/23 02:13:16;;;;;;;;;;;26.80;99.90;;;;;;5052383;28;19915;-71
2022/07/23 02:15:42;;;;;;;;;;;26.70;99.90;;;;;;5052262;28;20334;-72
2022/07/23 02:18:08;;;;;;;;;;;26.70;99.90;;;;;;5054494;28;20315;-72
2022/07/23 02:20:34;;;;;;;;;;;26.70;99.90;;;;;;5065884;28;19916;-71
2022/07/23 02:22:59;;;;;;;;;;;26.70;99.90;;;;;;5068411;28;19972;-71
2022/07/23 02:25:25;;;;;;;;;;;26.80;99.90;;;;;;5062683;28;20335;-70
2022/07/23 02:27:51;;;;;;;;;;;26.90;99.90;;;;;;5066190;28;19916;-71
2022/07/23 02:30:16;;;;;;;;;;;27.00;99.90;;;;;;5063494;28;19908;-71
2022/07/23 02:32:42;;;;;;;;;;;27.00;99.90;;;;;;5064812;28;19942;-71
2022/07/23 02:35:07;;;;;;;;;;;27.00;99.90;;;;;;5051302;28;20039;-71
2022/07/23 02:37:33;;;;;;;;;;;27.10;99.90;;;;;;5052123;28;19967;-71
2022/07/23 02:39:59;;;;;;;;;;;27.00;99.90;;;;;;5052074;28;19913;-72
2022/07/23 02:42:25;;;;;;;;;;;27.00;99.90;;;;;;5051902;28;20236;-71
2022/07/23 02:44:51;;;;;;;;;;;27.00;99.90;;;;;;5050970;28;19913;-71
2022/07/23 02:47:17;;;;;;;;;;;26.90;99.90;;;;;;5052424;28;20390;-72
2022/07/23 02:49:42;;;;;;;;;;;26.90;99.90;;;;;;5052980;28;19910;-71
2022/07/23 02:52:10;;;;;;;;;;;26.90;99.90;;;;;;5053225;28;19913;-72
2022/07/23 02:54:36;;;;;;;;;;;26.80;99.90;;;;;;5050921;28;19952;-72
2022/07/23 02:57:02;;;;;;;;;;;26.80;99.90;;;;;;5050832;28;20279;-71
2022/07/23 02:59:27;;;;;;;;;;;26.70;99.90;;;;;;5052129;28;19909;-72
2022/07/23 03:01:53;;;;;;;;;;;26.70;99.90;;;;;;5052140;28;19916;-72
2022/07/23 03:04:18;;;;;;;;;;;26.80;99.90;;;;;;5051565;28;19909;-72
2022/07/23 03:06:44;;;;;;;;;;;26.80;99.90;;;;;;5051357;28;19909;-71
2022/07/23 03:09:10;;;;;;;;;;;26.70;99.90;;;;;;5051436;28;19909;-71
2022/07/23 03:11:35;;;;;;;;;;;26.70;99.90;;;;;;5051087;28;20295;-72
2022/07/23 03:14:01;;;;;;;;;;;26.60;99.90;;;;;;5051463;28;19955;-70
2022/07/23 03:16:27;;;;;;;;;;;26.80;99.90;;;;;;5050732;28;19913;-72
2022/07/23 03:18:52;;;;;;;;;;;27.00;99.90;;;;;;5051195;28;19915;-72
2022/07/23 03:21:18;;;;;;;;;;;26.90;99.90;;;;;;5050943;28;19916;-72
2022/07/23 03:23:43;;;;;;;;;;;26.70;99.90;;;;;;5050753;28;19952;-72
2022/07/23 03:26:09;;;;;;;;;;;26.60;99.90;;;;;;5050672;28;19909;-72
2022/07/23 03:28:34;;;;;;;;;;;26.60;99.90;;;;;;5050798;28;19982;-71
2022/07/23 03:31:00;;;;;;;;;;;26.50;99.90;;;;;;5050781;28;20019;-71
2022/07/23 03:33:25;;;;;;;;;;;26.50;99.90;;;;;;5050760;28;19913;-71
2022/07/23 03:35:51;;;;;;;;;;;26.70;99.90;;;;;;5050529;28;19909;-71
2022/07/23 03:38:17;;;;;;;;;;;26.80;99.90;;;;;;5050751;28;19963;-71
2022/07/23 03:40:42;;;;;;;;;;;26.80;99.90;;;;;;5050668;28;20331;-72
2022/07/23 03:43:08;;;;;;;;;;;26.90;99.90;;;;;;5050445;28;19908;-71
2022/07/23 03:45:33;;;;;;;;;;;26.80;99.90;;;;;;5049068;28;20368;-72
2022/07/23 03:47:59;;;;;;;;;;;26.80;99.90;;;;;;5049369;28;19916;-72
2022/07/23 03:50:25;;;;;;;;;;;26.70;99.90;;;;;;5050496;28;19935;-71
2022/07/23 03:52:50;;;;;;;;;;;26.60;99.90;;;;;;5050589;28;19989;-72
2022/07/23 03:55:16;;;;;;;;;;;26.50;99.90;;;;;;5050214;28;19916;-71
2022/07/23 03:57:42;;;;;;;;;;;26.40;99.90;;;;;;5053978;28;19920;-72
2022/07/23 04:00:09;;;;;;;;;;;26.50;99.90;;;;;;5054971;28;19928;-72
2022/07/23 04:02:36;;;;;;;;;;;26.60;99.90;;;;;;5054710;28;20249;-71
2022/07/23 04:05:02;;;;;;;;;;;26.70;99.90;;;;;;5053010;28;19909;-71
2022/07/23 04:07:28;;;;;;;;;;;26.80;99.90;;;;;;5054627;28;20265;-71
2022/07/23 04:09:54;;;;;;;;;;;26.90;99.90;;;;;;5054533;28;20363;-71
2022/07/23 04:12:19;;;;;;;;;;;27.00;99.90;;;;;;5054237;28;20492;-71
2022/07/23 04:14:45;;;;;;;;;;;27.00;99.90;;;;;;5054301;28;20257;-72
2022/07/23 04:17:11;;;;;;;;;;;26.90;99.90;;;;;;5054326;28;20273;-70
2022/07/23 04:19:39;;;;;;;;;;;26.80;99.90;;;;;;5054654;28;19910;-72
2022/07/23 04:22:05;;;;;;;;;;;26.70;99.90;;;;;;5054141;28;19909;-71
2022/07/23 04:24:31;;;;;;;;;;;26.80;99.90;;;;;;5054269;28;19921;-71
2022/07/23 04:26:57;;;;;;;;;;;26.80;99.90;;;;;;5054427;28;20007;-71
2022/07/23 04:29:23;;;;;;;;;;;26.90;99.90;;;;;;5054818;28;19966;-72
2022/07/23 04:31:49;;;;;;;;;;;26.90;99.90;;;;;;5054586;28;20311;-71
2022/07/23 04:34:14;;;;;;;;;;;26.90;99.90;;;;;;5054422;28;19962;-71
2022/07/23 04:36:40;;;;;;;;;;;26.90;99.90;;;;;;5054534;28;20387;-71
2022/07/23 04:39:06;;;;;;;;;;;26.80;99.90;;;;;;5054826;28;19947;-72
2022/07/23 04:41:31;;;;;;;;;;;26.90;99.90;;;;;;5054112;28;19908;-72
2022/07/23 04:43:57;;;;;;;;;;;26.90;99.90;;;;;;5054142;28;19916;-72
2022/07/23 04:46:23;;;;;;;;;;;27.00;99.90;;;;;;5053993;28;19952;-73
2022/07/23 04:48:48;;;;;;;;;;;27.20;99.90;;;;;;5053757;28;20540;-73
2022/07/23 04:51:14;;;;;;;;;;;27.20;99.90;;;;;;5054042;28;19931;-72
2022/07/23 04:53:39;;;;;;;;;;;27.30;99.90;;;;;;5054508;28;19909;-71
2022/07/23 04:56:05;;;;;;;;;;;27.30;99.90;;;;;;5053350;28;19909;-72
2022/07/23 04:58:31;;;;;;;;;;;27.30;99.90;;;;;;5054162;28;19939;-72
2022/07/23 05:00:57;;;;;;;;;;;27.40;99.90;;;;;;5053548;28;19995;-72
2022/07/23 05:03:23;;;;;;;;;;;27.30;99.90;;;;;;5053424;28;19909;-70
2022/07/23 05:05:49;;;;;;;;;;;27.60;99.90;;;;;;5053150;28;19920;-71
2022/07/23 05:08:14;;;;;;;;;;;27.60;99.90;;;;;;5053622;28;19909;-71
2022/07/23 05:10:40;;;;;;;;;;;27.60;99.90;;;;;;5053651;28;19909;-71
2022/07/23 05:13:05;;;;;;;;;;;27.60;99.90;;;;;;5053312;28;20344;-71
2022/07/23 05:15:31;;;;;;;;;;;27.70;99.90;;;;;;5053041;28;20391;-71
2022/07/23 05:17:57;;;;;;;;;;;27.80;99.90;;;;;;5053154;28;20011;-72
2022/07/23 05:20:22;;;;;;;;;;;27.80;99.90;;;;;;5053460;28;19908;-71
2022/07/23 05:22:48;;;;;;;;;;;27.90;99.90;;;;;;5051881;28;19909;-71
2022/07/23 05:25:14;;;;;;;;;;;28.00;99.90;;;;;;5052672;28;20463;-71
2022/07/23 05:27:39;;;;;;;;;;;28.00;99.90;;;;;;5053707;28;19909;-71
2022/07/23 05:30:05;;;;;;;;;;;28.10;99.90;;;;;;5053615;28;19909;-72
2022/07/23 05:32:31;;;;;;;;;;;28.20;99.90;;;;;;5053171;28;19913;-72
2022/07/23 05:34:57;;;;;;;;;;;28.30;99.90;;;;;;5052509;28;19991;-70
2022/07/23 05:37:22;;;;;;;;;;;28.40;99.90;;;;;;5052966;28;20439;-71
2022/07/23 05:39:48;;;;;;;;;;;28.50;99.90;;;;;;5053296;28;19962;-72
2022/07/23 05:42:14;;;;;;;;;;;28.60;99.90;;;;;;5052739;28;19938;-72
2022/07/23 05:44:39;;;;;;;;;;;28.70;99.90;;;;;;5052689;28;19913;-72
2022/07/23 05:47:05;;;;;;;;;;;28.70;99.90;;;;;;5052783;28;19916;-72
2022/07/23 05:49:30;;;;;;;;;;;28.70;99.90;;;;;;5052861;28;19913;-71
2022/07/23 05:51:56;;;;;;;;;;;28.90;99.90;;;;;;5052589;28;20384;-71
2022/07/23 05:54:21;;;;;;;;;;;29.00;99.90;;;;;;5053125;28;19915;-72
2022/07/23 05:56:47;;;;;;;;;;;29.00;99.90;;;;;;5052475;28;19920;-72
2022/07/23 05:59:14;;;;;;;;;;;29.10;99.90;;;;;;5052826;28;19916;-72
2022/07/23 06:01:40;;;;;;;;;;;29.20;99.90;;;;;;5052856;28;19947;-72
2022/07/23 06:04:06;;;;;;;;;;;29.20;99.90;;;;;;5052791;28;19944;-72
2022/07/23 06:06:31;;;;;;;;;;;29.30;99.90;;;;;;5053183;28;19952;-72
2022/07/23 06:08:57;;;;;;;;;;;29.30;99.90;;;;;;5052379;28;19916;-72
2022/07/23 06:11:22;;;;;;;;;;;29.40;99.90;;;;;;5052638;28;20218;-72
2022/07/23 06:13:48;;;;;;;;;;;29.50;99.90;;;;;;5051157;28;19955;-72
2022/07/23 06:16:13;;;;;;;;;;;29.60;99.90;;;;;;5051912;28;19913;-72
2022/07/23 06:18:39;;;;;;;;;;;29.80;99.90;;;;;;5052020;28;20011;-71
2022/07/23 06:21:05;;;;;;;;;;;29.90;99.60;;;;;;5052156;28;19974;-72
2022/07/23 06:23:30;;;;;;;;;;;30.00;99.80;;;;;;5051120;28;19924;-72
2022/07/23 06:25:56;;;;;;;;;;;30.20;99.40;;;;;;5052506;28;19912;-72
2022/07/23 06:28:21;;;;;;;;;;;30.40;99.30;;;;;;5052732;28;19996;-71
2022/07/23 06:30:48;;;;;;;;;;;30.60;98.70;;;;;;5050674;28;19916;-72
2022/07/23 06:33:13;;;;;;;;;;;30.80;98.50;;;;;;5052053;28;19916;-73
2022/07/23 06:35:39;;;;;;;;;;;31.00;98.40;;;;;;5052103;28;20265;-71
2022/07/23 06:38:05;;;;;;;;;;;31.30;98.10;;;;;;5052052;28;20007;-72
2022/07/23 06:40:30;;;;;;;;;;;31.40;97.60;;;;;;5052376;28;19912;-72
2022/07/23 06:42:56;;;;;;;;;;;31.60;97.40;;;;;;5051802;28;19956;-72
2022/07/23 06:45:22;;;;;;;;;;;31.60;98.40;;;;;;5050220;28;19917;-72
2022/07/23 06:47:47;;;;;;;;;;;31.60;98.70;;;;;;5051811;28;19924;-72
2022/07/23 06:50:13;;;;;;;;;;;31.50;98.30;;;;;;5052194;28;19948;-72
2022/07/23 06:52:38;;;;;;;;;;;31.50;98.80;;;;;;5051528;28;19908;-72
2022/07/23 06:55:04;;;;;;;;;;;31.30;99.90;;;;;;5051288;28;19909;-74
2022/07/23 06:57:30;;;;;;;;;;;31.20;99.90;;;;;;5051477;28;19912;-72
2022/07/23 06:59:55;;;;;;;;;;;31.20;99.90;;;;;;5051626;28;19996;-72
2022/07/23 07:02:21;;;;;;;;;;;31.10;99.90;;;;;;5052493;28;19909;-72
2022/07/23 07:04:47;;;;;;;;;;;31.10;99.90;;;;;;5053091;28;20007;-71
2022/07/23 07:07:12;;;;;;;;;;;31.10;99.90;;;;;;5054281;28;19909;-72
2022/07/23 07:09:38;;;;;;;;;;;31.10;99.90;;;;;;5054265;28;20283;-71
2022/07/23 07:12:04;;;;;;;;;;;31.00;99.90;;;;;;5055315;28;19908;-72
2022/07/23 07:14:30;;;;;;;;;;;31.10;99.90;;;;;;5054254;28;20295;-73
2022/07/23 07:16:55;;;;;;;;;;;31.10;99.90;;;;;;5053716;28;19912;-73
2022/07/23 07:19:21;;;;;;;;;;;31.00;99.90;;;;;;5053579;28;19913;-72
2022/07/23 07:21:46;;;;;;;;;;;31.00;99.90;;;;;;5051433;28;20000;-71
2022/07/23 07:24:12;;;;;;;;;;;31.00;99.90;;;;;;5051169;28;20263;-74
2022/07/23 07:26:39;;;;;;;;;;;30.90;99.90;;;;;;5051178;28;20336;-72
2022/07/23 07:29:04;;;;;;;;;;;30.90;99.90;;;;;;5051694;28;20293;-73
2022/07/23 07:31:30;;;;;;;;;;;30.80;99.90;;;;;;5050742;28;19922;-73
2022/07/23 07:33:56;;;;;;;;;;;30.70;99.90;;;;;;5051442;28;20356;-73
2022/07/23 07:36:22;;;;;;;;;;;30.50;99.90;;;;;;5050166;28;19909;-72
2022/07/23 07:38:48;;;;;;;;;;;30.40;99.90;;;;;;5050895;28;20211;-71
2022/07/23 07:41:13;;;;;;;;;;;30.20;99.90;;;;;;5051799;28;20003;-72
2022/07/23 07:43:39;;;;;;;;;;;29.90;99.90;;;;;;5051707;28;19916;-72
2022/07/23 07:46:04;;;;;;;;;;;29.80;99.90;;;;;;5051608;28;20402;-73
2022/07/23 07:48:30;;;;;;;;;;;29.70;99.90;;;;;;5051597;28;19915;-73
2022/07/23 07:50:55;;;;;;;;;;;29.60;99.90;;;;;;5051436;28;19908;-72
2022/07/23 07:53:21;;;;;;;;;;;29.60;99.90;;;;;;5052900;28;20369;-72
2022/07/23 07:55:47;;;;;;;;;;;29.60;99.90;;;;;;5051376;28;19912;-73
2022/07/23 07:58:12;;;;;;;;;;;29.70;99.90;;;;;;5052648;28;19913;-72
2022/07/23 08:00:38;;;;;;;;;;;29.80;99.90;;;;;;5052438;28;19913;-73
2022/07/23 08:03:03;;;;;;;;;;;29.90;99.90;;;;;;5051462;28;19951;-72
2022/07/23 08:05:30;;;;;;;;;;;30.10;99.90;;;;;;5051022;28;19916;-71
2022/07/23 08:07:56;;;;;;;;;;;30.20;99.90;;;;;;5050724;28;19913;-73
2022/07/23 08:10:22;;;;;;;;;;;30.20;99.90;;;;;;5051736;28;20276;-72
2022/07/23 08:12:49;;;;;;;;;;;30.40;99.90;;;;;;5051197;28;19913;-74
2022/07/23 08:15:15;;;;;;;;;;;30.50;99.90;;;;;;5051462;28;19967;-73
2022/07/23 08:17:41;;;;;;;;;;;30.60;99.90;;;;;;5051202;28;19916;-72
2022/07/23 08:20:07;;;;;;;;;;;30.80;99.90;;;;;;5050944;28;19916;-73
2022/07/23 08:22:43;;;;;;;;;;;30.90;99.90;;;;;;5050571;28;20338;-72
2022/07/23 08:25:09;;;;;;;;;;;30.90;99.90;;;;;;5050094;28;19916;-72
2022/07/23 08:27:34;;;;;;;;;;;31.10;99.90;;;;;;5050217;28;19909;-72
2022/07/23 08:30:00;;;;;;;;;;;31.40;99.90;;;;;;5050330;28;19920;-73
2022/07/23 08:32:25;;;;;;;;;;;31.60;99.90;;;;;;5050510;28;20293;-72
2022/07/23 08:34:51;;;;;;;;;;;31.80;99.90;;;;;;5051263;28;19912;-72
2022/07/23 08:37:17;;;;;;;;;;;32.00;99.90;;;;;;5051489;28;19916;-71
2022/07/23 08:39:42;;;;;;;;;;;32.10;99.90;;;;;;5050719;28;19908;-72
2022/07/23 08:42:08;;;;;;;;;;;32.00;99.90;;;;;;5051443;28;19908;-73
2022/07/23 08:44:35;;;;;;;;;;;31.80;99.90;;;;;;5054438;28;20493;-72
2022/07/23 08:47:00;;;;;;;;;;;31.50;99.90;;;;;;5054400;28;19917;-71
2022/07/23 08:49:26;;;;;;;;;;;31.40;99.90;;;;;;5054249;28;20423;-72
2022/07/23 08:51:52;;;;;;;;;;;31.40;99.90;;;;;;5054098;28;19913;-72
2022/07/23 08:54:18;;;;;;;;;;;31.40;99.90;;;;;;5054402;28;19916;-72
2022/07/23 08:56:43;;;;;;;;;;;31.40;99.90;;;;;;5054759;28;20051;-72
2022/07/23 08:59:09;;;;;;;;;;;31.50;99.90;;;;;;5054876;28;19916;-72
2022/07/23 09:01:34;;;;;;;;;;;31.60;99.90;;;;;;5054925;28;19908;-72
2022/07/23 09:04:01;;;;;;;;;;;31.60;99.90;;;;;;5054492;28;19913;-72
2022/07/23 09:06:26;;;;;;;;;;;31.50;99.90;;;;;;5052420;28;19967;-72
2022/07/23 09:08:52;;;;;;;;;;;31.60;98.90;;;;;;5054713;28;19916;-71
2022/07/23 09:11:18;;;;;;;;;;;31.60;98.20;;;;;;5054419;28;19909;-72
2022/07/23 09:13:52;;;;;;;;;;;31.70;98.40;;;;;;5055173;28;19909;-72
2022/07/23 09:16:29;;;;;;;;;;;31.90;97.80;;;;;;5052062;28;19935;-71
2022/07/23 09:18:55;;;;;;;;;;;31.70;97.40;;;;;;5053677;28;19913;-74
2022/07/23 09:21:20;;;;;;;;;;;31.80;97.90;;;;;;5053814;28;20465;-72
2022/07/23 09:23:50;;;;;;;;;;;31.90;97.90;;;;;;5053353;28;20284;-71
2022/07/23 09:26:25;;;;;;;;;;;32.00;97.70;;;;;;5053391;28;20375;-71
2022/07/23 09:29:14;;;;;;;;;;;32.00;98.40;;;;;;5053570;28;20354;-70
2022/07/23 09:31:47;;;;;;;;;;;32.20;98.00;;;;;;5045939;28;19909;-71
2022/07/23 09:34:13;;;;;;;;;;;32.20;98.10;;;;;;5053773;28;19909;-72
2022/07/23 09:36:38;;;;;;;;;;;32.20;98.00;;;;;;5053216;28;19920;-71
2022/07/23 09:39:04;;;;;;;;;;;32.20;97.70;;;;;;5053473;28;19932;-72
2022/07/23 09:41:37;;;;;;;;;;;32.30;97.70;;;;;;5053421;28;20007;-72
2022/07/23 09:44:11;;;;;;;;;;;32.30;97.50;;;;;;5053244;28;19915;-72
2022/07/23 09:46:39;;;;;;;;;;;32.40;97.40;;;;;;5053099;28;20379;-72
2022/07/23 09:49:10;;;;;;;;;;;32.50;97.40;;;;;;5053635;28;19921;-72
2022/07/23 09:51:43;;;;;;;;;;;32.50;97.30;;;;;;5053195;28;20011;-74
2022/07/23 09:54:19;;;;;;;;;;;32.50;97.60;;;;;;5051739;28;19970;-72
2022/07/23 09:56:46;;;;;;;;;;;32.70;96.90;;;;;;5051090;28;19913;-73
2022/07/23 09:59:12;;;;;;;;;;;32.70;96.60;;;;;;5053003;28;20368;-72
2022/07/23 10:01:38;;;;;;;;;;;32.70;96.30;;;;;;5053452;28;19935;-72
2022/07/23 10:04:04;;;;;;;;;;;32.70;96.40;;;;;;5052851;28;19916;-74
2022/07/23 10:06:30;;;;;;;;;;;32.70;96.50;;;;;;5053819;28;19909;-72
2022/07/23 10:08:58;;;;;;;;;;;32.70;96.00;;;;;;5054114;28;19909;-71
2022/07/23 10:11:24;;;;;;;;;;;32.70;96.30;;;;;;5053022;28;20339;-74
2022/07/23 10:13:51;;;;;;;;;;;32.70;96.90;;;;;;5052978;28;19915;-73
2022/07/23 10:16:17;;;;;;;;;;;32.80;96.90;;;;;;5052525;28;19916;-72
2022/07/23 10:18:43;;;;;;;;;;;32.80;96.80;;;;;;5053388;28;20245;-72
2022/07/23 10:21:09;;;;;;;;;;;32.70;96.40;;;;;;5052888;28;19915;-72
2022/07/23 10:23:37;;;;;;;;;;;32.50;96.60;;;;;;5052383;28;19971;-72
2022/07/23 10:26:10;;;;;;;;;;;32.60;96.60;;;;;;5052477;28;19916;-74
2022/07/23 10:28:54;;;;;;;;;;;32.60;96.00;;;;;;5052587;28;19909;-72
2022/07/23 10:31:26;;;;;;;;;;;32.40;95.70;;;;;;5052804;28;19908;-71
2022/07/23 10:34:07;;;;;;;;;;;32.10;95.60;;;;;;5054921;28;19912;-73
2022/07/23 10:36:51;;;;;;;;;;;32.10;96.10;;;;;;5054668;28;19985;-72
2022/07/23 10:39:23;;;;;;;;;;;31.90;96.20;;;;;;5055291;28;19935;-72
2022/07/23 10:41:50;;;;;;;;;;;31.80;95.80;;;;;;5057381;28;19909;-73
2022/07/23 10:44:17;;;;;;;;;;;31.70;95.90;;;;;;5056150;28;19940;-73
2022/07/23 10:49:40;;;;;;;;;;;31.80;96.50;;;;;;5052991;28;19919;-71
2022/07/23 10:52:15;;;;;;;;;;;31.70;96.30;;;;;;5052390;28;19995;-71
2022/07/23 10:54:40;;;;;;;;;;;31.60;96.40;;;;;;5052772;28;19908;-72
2022/07/23 10:57:06;;;;;;;;;;;31.70;96.20;;;;;;5052328;28;19962;-73
2022/07/23 10:59:52;;;;;;;;;;;31.70;97.20;;;;;;5052401;28;19908;-71
2022/07/23 11:02:22;;;;;;;;;;;31.80;97.40;;;;;;5052361;28;19989;-72
2022/07/23 11:04:51;;;;;;;;;;;31.80;97.40;;;;;;5050285;28;19974;-72
2022/07/23 11:07:17;;;;;;;;;;;31.80;98.10;;;;;;5050236;28;19908;-72
2022/07/23 11:09:45;;;;;;;;;;;31.90;98.30;;;;;;5051738;28;20252;-72
2022/07/23 11:12:20;;;;;;;;;;;31.90;97.60;;;;;;5052031;28;20242;-75
2022/07/23 11:15:04;;;;;;;;;;;32.00;96.40;;;;;;5051540;28;19916;-72
2022/07/23 11:17:36;;;;;;;;;;;32.10;95.20;;;;;;5051605;28;20007;-72
2022/07/23 11:20:12;;;;;;;;;;;32.30;95.80;;;;;;5050308;28;19913;-73
2022/07/23 11:22:43;;;;;;;;;;;32.30;94.40;;;;;;5052136;28;19915;-72
2022/07/23 11:25:13;;;;;;;;;;;32.20;95.10;;;;;;5051264;28;20348;-73
2022/07/23 11:27:39;;;;;;;;;;;32.30;94.90;;;;;;5051637;28;19909;-73
2022/07/23 11:30:06;;;;;;;;;;;32.30;93.70;;;;;;5051639;28;19916;-72
2022/07/23 11:32:39;;;;;;;;;;;32.40;95.00;;;;;;5051668;28;19909;-72
2022/07/23 11:35:25;;;;;;;;;;;32.40;94.90;;;;;;5050902;28;20300;-71
2022/07/23 11:37:53;;;;;;;;;;;32.60;94.70;;;;;;5051574;28;20380;-73
2022/07/23 11:40:19;;;;;;;;;;;32.60;93.60;;;;;;5051387;28;19940;-72
2022/07/23 11:42:56;;;;;;;;;;;32.70;95.00;;;;;;5051201;28;19917;-72
2022/07/23 11:45:22;;;;;;;;;;;32.60;97.20;;;;;;5051013;28;20343;-73
2022/07/23 11:47:47;;;;;;;;;;;32.50;99.00;;;;;;5051782;28;20017;-73
2022/07/23 11:50:13;;;;;;;;;;;32.20;97.50;;;;;;5052801;28;19909;-72
2022/07/23 11:52:39;;;;;;;;;;;32.10;97.30;;;;;;5053023;28;20050;-73
2022/07/23 11:55:06;;;;;;;;;;;32.00;96.90;;;;;;5052160;28;20006;-73
2022/07/23 11:57:33;;;;;;;;;;;31.90;97.10;;;;;;5054592;28;20198;-73
2022/07/23 12:00:04;;;;;;;;;;;32.20;97.30;;;;;;5052766;28;19909;-72
2022/07/23 12:02:30;;;;;;;;;;;31.90;97.40;;;;;;5053081;28;20304;-72
2022/07/23 12:04:56;;;;;;;;;;;32.10;97.70;;;;;;5051703;28;19909;-72
2022/07/23 12:07:38;;;;;;;;;;;32.20;97.00;;;;;;5052406;28;19913;-75
2022/07/23 12:10:10;;;;;;;;;;;32.20;97.50;;;;;;5052580;28;19917;-74
2022/07/23 12:12:36;;;;;;;;;;;32.30;96.90;;;;;;5051296;28;19915;-73
2022/07/23 12:15:02;;;;;;;;;;;32.40;97.90;;;;;;5050991;28;19963;-72
2022/07/23 12:17:29;;;;;;;;;;;32.20;96.60;;;;;;5051993;28;19917;-72
2022/07/23 12:19:59;;;;;;;;;;;32.10;97.00;;;;;;5054689;28;19912;-72
2022/07/23 12:22:25;;;;;;;;;;;32.20;96.40;;;;;;5054464;28;20349;-73
2022/07/23 12:25:02;;;;;;;;;;;32.30;96.00;;;;;;5054449;28;19927;-71
2022/07/23 12:27:28;;;;;;;;;;;32.30;96.30;;;;;;5054287;28;20001;-72
2022/07/23 12:29:53;;;;;;;;;;;32.20;95.40;;;;;;5055022;28;20356;-71
2022/07/23 12:32:21;;;;;;;;;;;32.40;93.90;;;;;;5054831;28;19909;-73
2022/07/23 12:34:51;;;;;;;;;;;32.50;93.70;;;;;;5055993;28;19909;-73
2022/07/23 12:37:30;;;;;;;;;;;32.60;93.80;;;;;;5054278;28;19913;-71
2022/07/23 12:39:56;;;;;;;;;;;32.80;92.50;;;;;;5055057;28;19913;-73
2022/07/23 12:42:24;;;;;;;;;;;32.70;92.80;;;;;;5055219;28;20326;-72
2022/07/23 12:45:22;;;;;;;;;;;32.70;92.70;;;;;;5054086;28;20275;-72
2022/07/23 12:47:55;;;;;;;;;;;32.60;93.40;;;;;;5020839;28;19955;-72
2022/07/23 12:50:34;;;;;;;;;;;32.50;94.10;;;;;;5054406;28;19923;-72
2022/07/23 12:53:07;;;;;;;;;;;32.70;94.10;;;;;;5054212;28;19909;-73
2022/07/23 12:55:32;;;;;;;;;;;32.70;93.70;;;;;;5054506;28;19964;-73
2022/07/23 12:58:10;;;;;;;;;;;32.70;94.40;;;;;;5054153;28;20356;-72
2022/07/23 13:01:08;;;;;;;;;;;32.80;94.60;;;;;;5054054;28;19909;-73
2022/07/23 13:03:36;;;;;;;;;;;32.70;95.50;;;;;;5020229;28;19984;-72
2022/07/23 13:06:03;;;;;;;;;;;32.80;96.10;;;;;;5053760;28;19927;-74
2022/07/23 13:08:30;;;;;;;;;;;32.60;97.50;;;;;;5053763;28;19944;-72
2022/07/23 13:10:56;;;;;;;;;;;32.50;98.00;;;;;;5054225;28;19909;-72
2022/07/23 13:13:23;;;;;;;;;;;32.30;98.90;;;;;;5054015;28;19913;-72
2022/07/23 13:15:48;;;;;;;;;;;32.50;99.40;;;;;;5053879;28;19989;-72
2022/07/23 13:18:17;;;;;;;;;;;32.70;99.30;;;;;;5053660;28;19959;-72
2022/07/23 13:20:43;;;;;;;;;;;32.70;99.30;;;;;;5053492;28;19916;-73
2022/07/23 13:23:09;;;;;;;;;;;32.60;99.40;;;;;;5053707;28;19938;-72
2022/07/23 13:25:35;;;;;;;;;;;32.70;99.40;;;;;;5053377;28;20426;-72
2022/07/23 13:28:01;;;;;;;;;;;32.50;98.70;;;;;;5053256;28;19917;-73
2022/07/23 13:30:26;;;;;;;;;;;32.50;99.80;;;;;;5051255;28;19909;-72
2022/07/23 13:32:52;;;;;;;;;;;32.70;99.00;;;;;;5053602;28;20283;-72
2022/07/23 13:35:18;;;;;;;;;;;32.60;98.80;;;;;;5053488;28;19909;-73
2022/07/23 13:37:44;;;;;;;;;;;32.70;99.80;;;;;;5053030;28;19913;-73
2022/07/23 13:40:09;;;;;;;;;;;32.80;99.90;;;;;;5053039;28;19908;-71
2022/07/23 13:42:35;;;;;;;;;;;32.80;99.90;;;;;;5053042;28;20291;-72
2022/07/23 13:45:01;;;;;;;;;;;33.00;99.90;;;;;;5052841;28;19963;-72
2022/07/23 13:47:27;;;;;;;;;;;33.00;99.90;;;;;;5053129;28;19909;-72
2022/07/23 13:49:52;;;;;;;;;;;32.90;99.90;;;;;;5052935;28;19923;-74
2022/07/23 13:52:18;;;;;;;;;;;32.80;99.90;;;;;;5053392;28;20253;-71
2022/07/23 13:54:43;;;;;;;;;;;32.90;99.90;;;;;;5052737;28;19909;-71
2022/07/23 13:57:09;;;;;;;;;;;33.00;99.90;;;;;;5052811;28;19920;-73
2022/07/23 13:59:35;;;;;;;;;;;33.00;99.90;;;;;;5052943;28;19930;-73
2022/07/23 14:02:04;;;;;;;;;;;32.90;99.90;;;;;;5052762;28;19949;-72
2022/07/23 14:04:29;;;;;;;;;;;32.60;99.90;;;;;;5052936;28;19912;-72
2022/07/23 14:06:55;;;;;;;;;;;32.70;99.90;;;;;;5052859;28;20379;-71
2022/07/23 14:09:21;;;;;;;;;;;32.90;99.90;;;;;;5051271;28;19913;-73
2022/07/23 14:11:46;;;;;;;;;;;33.00;99.90;;;;;;5052684;28;19971;-72
2022/07/23 14:14:12;;;;;;;;;;;33.20;99.90;;;;;;5051186;28;19958;-73
2022/07/23 14:16:38;;;;;;;;;;;33.20;99.90;;;;;;5052514;28;19913;-72
2022/07/23 14:19:03;;;;;;;;;;;33.10;99.90;;;;;;5053271;28;19908;-73